Time;durP1;ratioP1;P1;durP2;ratioP2;P2;SDS_P1;SDS_P2;PMS_P1;PMS_P2;Temp;Humidity;BMP_temperature;BMP_pressure;BME280_temperature;BME280_humidity;BME280_pressure;Samples;Min_cycle;Max_cycle;Signal;HPM_P1;HPM_P2
2023/02/04 00:00:27;;;;;;;5.70;0.80;;;8.00;95.10;;;;;;5039962;28;20493;-86
2023/02/04 00:02:58;;;;;;;5.90;1.73;;;7.90;95.20;;;;;;5048204;28;20080;-86
2023/02/04 00:05:25;;;;;;;5.97;0.60;;;7.90;95.20;;;;;;5004543;28;20508;-85
2023/02/04 00:07:52;;;;;;;5.47;0.82;;;7.90;95.20;;;;;;5021793;28;20473;-86
2023/02/04 00:10:19;;;;;;;3.63;1.00;;;7.90;95.30;;;;;;5039275;28;20115;-84
2023/02/04 00:12:46;;;;;;;3.40;0.88;;;7.90;95.30;;;;;;5039866;28;20127;-83
2023/02/04 00:15:13;;;;;;;6.68;0.93;;;7.80;95.30;;;;;;5047962;28;20571;-83
2023/02/04 00:17:40;;;;;;;5.22;1.08;;;7.90;95.30;;;;;;5051538;28;20045;-83
2023/02/04 00:20:08;;;;;;;3.40;0.45;;;7.90;95.30;;;;;;5036420;28;20045;-84
2023/02/04 00:22:35;;;;;;;3.97;0.40;;;7.90;95.30;;;;;;5051727;28;20083;-84
2023/02/04 00:25:02;;;;;;;4.55;0.50;;;7.90;95.30;;;;;;5039337;28;20060;-84
2023/02/04 00:27:29;;;;;;;4.10;0.60;;;7.90;95.30;;;;;;5039312;28;20097;-83
2023/02/04 00:29:57;;;;;;;3.97;0.47;;;7.90;95.30;;;;;;5039322;28;20060;-83
2023/02/04 00:32:24;;;;;;;4.25;0.55;;;7.90;95.40;;;;;;5038816;28;20048;-86
2023/02/04 00:34:53;;;;;;;7.38;1.33;;;7.90;95.40;;;;;;5046396;28;20114;-85
2023/02/04 00:37:20;;;;;;;8.57;1.00;;;7.80;95.40;;;;;;5073407;28;20071;-84
2023/02/04 00:39:47;;;;;;;5.07;0.52;;;7.80;95.40;;;;;;5059374;28;20492;-86
2023/02/04 00:42:15;;;;;;;4.10;0.85;;;7.80;95.40;;;;;;5043210;28;20553;-86
2023/02/04 00:44:42;;;;;;;3.78;0.60;;;7.70;95.50;;;;;;5059422;28;20070;-86
2023/02/04 00:47:09;;;;;;;3.67;0.57;;;7.70;95.50;;;;;;5075735;28;20036;-86
2023/02/04 00:49:36;;;;;;;3.45;0.68;;;7.70;95.60;;;;;;5042556;28;20050;-86
2023/02/04 00:52:03;;;;;;;3.35;0.68;;;7.60;95.60;;;;;;5075593;28;20078;-85
2023/02/04 00:54:30;;;;;;;2.72;0.52;;;7.60;95.60;;;;;;5059352;28;20044;-85
2023/02/04 00:56:57;;;;;;;6.75;0.60;;;7.60;95.60;;;;;;5075833;28;20043;-85
2023/02/04 00:59:24;;;;;;;5.10;1.73;;;7.60;95.70;;;;;;5042875;28;20093;-85
2023/02/04 01:01:52;;;;;;;4.50;0.60;;;7.60;95.70;;;;;;5059095;28;20048;-85
2023/02/04 01:04:20;;;;;;;3.00;0.60;;;7.70;95.70;;;;;;5053037;28;20045;-85
2023/02/04 01:06:47;;;;;;;4.78;0.47;;;7.70;95.60;;;;;;5038871;28;20041;-85
2023/02/04 01:09:14;;;;;;;8.48;1.73;;;7.70;95.60;;;;;;5039106;28;20056;-85
2023/02/04 01:11:41;;;;;;;6.78;0.90;;;7.60;95.60;;;;;;5006747;28;20115;-85
2023/02/04 01:14:09;;;;;;;5.72;1.27;;;7.60;95.60;;;;;;5038817;28;20063;-85
2023/02/04 01:16:38;;;;;;;3.65;0.43;;;7.60;95.60;;;;;;5039120;28;20127;-85
2023/02/04 01:19:05;;;;;;;2.47;0.88;;;7.50;95.70;;;;;;5039311;28;20040;-85
2023/02/04 01:21:32;;;;;;;2.75;0.30;;;7.50;95.70;;;;;;5022755;28;20052;-85
2023/02/04 01:24:00;;;;;;;4.57;0.60;;;7.40;95.80;;;;;;5055082;28;20056;-85
2023/02/04 01:26:28;;;;;;;4.95;0.93;;;7.40;95.80;;;;;;5055422;28;20060;-85
2023/02/04 01:28:55;;;;;;;4.45;0.50;;;7.40;95.90;;;;;;5022329;28;20061;-85
2023/02/04 01:31:24;;;;;;;5.35;0.57;;;7.40;95.90;;;;;;5055468;28;20044;-85
2023/02/04 01:33:51;;;;;;;2.97;0.50;;;7.40;95.90;;;;;;5038592;28;20048;-85
2023/02/04 01:36:20;;;;;;;3.88;0.77;;;7.30;95.90;;;;;;5039884;28;20044;-85
2023/02/04 01:38:48;;;;;;;5.70;1.00;;;7.30;95.90;;;;;;5059132;28;20131;-85
2023/02/04 01:41:17;;;;;;;4.00;0.60;;;7.30;95.90;;;;;;5042553;28;20490;-84
2023/02/04 01:43:47;;;;;;;7.65;0.95;;;7.30;95.90;;;;;;5076266;28;20496;-85
2023/02/04 01:46:15;;;;;;;6.22;0.95;;;7.40;95.80;;;;;;5046031;28;20052;-85
2023/02/04 01:48:43;;;;;;;5.50;0.80;;;7.40;95.80;;;;;;5079179;28;20067;-84
2023/02/04 01:51:18;;;;;;;5.15;0.88;;;7.40;95.70;;;;;;5062691;28;20052;-85
2023/02/04 01:53:45;;;;;;;2.97;1.08;;;7.40;95.70;;;;;;5061937;28;20044;-85
2023/02/04 01:56:19;;;;;;;5.03;1.00;;;7.40;95.70;;;;;;5062133;28;20073;-85
2023/02/04 01:58:47;;;;;;;2.35;0.50;;;7.30;95.80;;;;;;5071427;28;20138;-85
2023/02/04 02:01:32;;;;;;;1.63;0.52;;;7.30;95.80;;;;;;5058651;28;20040;-85
2023/02/04 02:04:00;;;;;;;2.22;0.52;;;7.30;95.90;;;;;;5058530;28;20048;-85
2023/02/04 02:06:27;;;;;;;2.95;0.40;;;7.20;96.00;;;;;;5026098;28;20044;-85
2023/02/04 02:08:57;;;;;;;2.13;0.30;;;7.20;96.10;;;;;;5057994;28;20056;-85
2023/02/04 02:11:25;;;;;;;2.47;0.32;;;7.10;96.10;;;;;;5041865;28;20047;-85
2023/02/04 02:13:53;;;;;;;2.78;0.88;;;7.20;96.20;;;;;;5058164;28;20493;-85
2023/02/04 02:16:20;;;;;;;4.65;0.45;;;7.10;96.10;;;;;;5025845;28;20048;-85
2023/02/04 02:18:48;;;;;;;5.25;1.02;;;7.10;96.20;;;;;;5057838;28;20067;-85
2023/02/04 02:21:20;;;;;;;6.80;0.68;;;7.10;96.20;;;;;;5041782;28;20098;-86
2023/02/04 02:23:51;;;;;;;;;;;7.10;96.10;;;;;;5042685;28;20045;-85
2023/02/04 02:26:20;;;;;;;3.75;0.65;;;7.00;96.20;;;;;;5058527;28;19920;-86
2023/02/04 02:28:48;;;;;;;3.47;0.50;;;7.00;96.20;;;;;;5044741;28;20059;-85
2023/02/04 02:31:17;;;;;;;4.38;0.50;;;7.00;96.20;;;;;;5058150;28;20143;-84
2023/02/04 02:33:45;;;;;;;6.95;0.60;;;7.00;96.30;;;;;;5074610;28;20048;-85
2023/02/04 02:36:14;;;;;;;6.38;0.85;;;7.00;96.30;;;;;;5058590;28;20480;-85
2023/02/04 02:38:42;;;;;;;6.45;0.90;;;6.90;96.30;;;;;;5054892;28;20045;-85
2023/02/04 02:41:09;;;;;;;7.22;0.95;;;6.90;96.30;;;;;;5036109;28;20037;-85
2023/02/04 02:43:37;;;;;;;3.63;0.95;;;6.90;96.30;;;;;;5041212;28;20045;-85
2023/02/04 02:46:05;;;;;;;2.90;0.57;;;6.80;96.40;;;;;;5041427;28;20057;-85
2023/02/04 02:48:32;;;;;;;3.25;0.47;;;6.80;96.50;;;;;;5053409;28;20052;-85
2023/02/04 02:51:00;;;;;;;2.65;0.50;;;6.70;96.50;;;;;;5061214;28;20075;-85
2023/02/04 02:53:27;;;;;;;4.13;0.98;;;6.70;96.60;;;;;;5044603;28;20047;-85
2023/02/04 02:55:55;;;;;;;2.35;0.40;;;6.70;96.60;;;;;;5044465;28;20075;-85
2023/02/04 02:58:33;;;;;;;4.10;0.50;;;6.70;96.60;;;;;;5050660;28;20066;-85
2023/02/04 03:01:03;;;;;;;4.57;0.40;;;6.60;96.60;;;;;;5061305;28;20044;-85
2023/02/04 03:03:52;;;;;;;4.55;0.50;;;6.60;96.70;;;;;;5077609;28;20097;-85
2023/02/04 03:06:25;;;;;;;2.92;0.40;;;6.60;96.80;;;;;;5078150;28;20059;-85
2023/02/04 03:08:55;;;;;;;1.67;0.40;;;6.50;96.80;;;;;;5077983;28;20102;-85
2023/02/04 03:11:25;;;;;;;2.05;0.40;;;6.40;96.90;;;;;;5061236;28;20135;-85
2023/02/04 03:13:52;;;;;;;2.67;0.28;;;6.40;96.90;;;;;;5061355;28;20488;-86
2023/02/04 03:16:19;;;;;;;5.22;0.40;;;6.30;97.00;;;;;;5077524;28;20503;-85
2023/02/04 03:18:48;;;;;;;2.58;0.40;;;6.20;97.00;;;;;;5060346;28;20036;-85
2023/02/04 03:21:15;;;;;;;1.70;0.40;;;6.20;97.10;;;;;;5064778;28;20047;-85
2023/02/04 03:23:42;;;;;;;2.90;0.40;;;6.20;97.20;;;;;;5064573;28;20146;-85
2023/02/04 03:26:09;;;;;;;3.65;0.30;;;6.20;97.20;;;;;;5080733;28;20047;-85
2023/02/04 03:28:41;;;;;;;2.92;0.40;;;6.20;97.20;;;;;;5060848;28;20060;-85
2023/02/04 03:31:08;;;;;;;2.95;0.40;;;6.30;97.10;;;;;;5060778;28;20040;-85
2023/02/04 03:33:36;;;;;;;4.75;0.50;;;6.30;97.20;;;;;;5027737;28;20119;-85
2023/02/04 03:36:03;;;;;;;1.40;0.20;;;6.30;97.20;;;;;;5044144;28;20047;-85
2023/02/04 03:38:30;;;;;;;3.60;0.52;;;6.20;97.10;;;;;;5043924;28;20036;-86
2023/02/04 03:40:57;;;;;;;4.50;0.60;;;6.20;97.10;;;;;;5060722;28;20040;-86
2023/02/04 03:43:24;;;;;;;4.78;0.50;;;6.20;97.10;;;;;;5060582;28;20048;-85
2023/02/04 03:45:51;;;;;;;2.58;1.13;;;6.20;97.10;;;;;;5060544;28;20040;-86
2023/02/04 03:48:18;;;;;;;3.15;0.57;;;6.20;97.20;;;;;;5076847;28;20050;-86
2023/02/04 03:50:45;;;;;;;4.25;0.80;;;6.10;97.20;;;;;;5060250;28;20916;-86
2023/02/04 03:53:13;;;;;;;3.70;0.35;;;6.20;97.30;;;;;;5043715;28;20048;-86
2023/02/04 03:55:40;;;;;;;3.83;0.60;;;6.10;97.30;;;;;;5076927;28;20069;-86
2023/02/04 03:58:07;;;;;;;3.00;0.40;;;6.10;97.30;;;;;;5057651;28;20052;-86
2023/02/04 04:00:34;;;;;;;1.67;0.40;;;6.10;97.30;;;;;;5057134;28;20064;-86
2023/02/04 04:03:01;;;;;;;1.95;0.50;;;6.00;97.40;;;;;;5055583;28;20044;-86
2023/02/04 04:05:28;;;;;;;5.00;0.57;;;6.00;97.50;;;;;;5043710;28;20052;-86
2023/02/04 04:07:55;;;;;;;2.55;0.40;;;5.90;97.50;;;;;;5059649;28;20048;-86
2023/02/04 04:10:22;;;;;;;4.40;0.40;;;5.90;97.50;;;;;;5043481;28;20523;-86
2023/02/04 04:12:49;;;;;;;1.75;0.38;;;5.90;97.60;;;;;;5059877;28;20564;-86
2023/02/04 04:15:16;;;;;;;3.40;0.90;;;5.90;97.60;;;;;;5043022;28;20557;-86
2023/02/04 04:17:43;;;;;;;3.92;0.30;;;5.80;97.60;;;;;;5023653;28;20136;-87
2023/02/04 04:20:11;;;;;;;2.80;0.45;;;5.80;97.70;;;;;;5039909;28;20431;-87
2023/02/04 04:22:38;;;;;;;2.50;0.32;;;5.70;97.70;;;;;;5056547;28;20098;-87
2023/02/04 04:25:06;;;;;;;2.28;0.57;;;5.70;97.80;;;;;;5040025;28;20148;-86
2023/02/04 04:27:33;;;;;;;2.85;0.40;;;5.70;97.80;;;;;;5056923;28;20044;-86
2023/02/04 04:30:01;;;;;;;3.10;0.32;;;5.70;97.80;;;;;;5056139;28;20493;-87
2023/02/04 04:32:28;;;;;;;3.78;0.40;;;5.70;97.80;;;;;;5050423;28;20117;-86
2023/02/04 04:34:55;;;;;;;3.58;0.50;;;5.70;97.80;;;;;;5056274;28;20106;-86
2023/02/04 04:37:22;;;;;;;3.78;0.50;;;5.80;97.80;;;;;;5039917;28;20094;-86
2023/02/04 04:39:49;;;;;;;3.47;0.60;;;5.70;97.80;;;;;;5039559;28;20040;-86
2023/02/04 04:42:16;;;;;;;3.17;0.63;;;5.80;97.80;;;;;;5039602;28;20485;-86
2023/02/04 04:44:43;;;;;;;4.03;0.60;;;5.80;97.80;;;;;;5039532;28;20048;-87
2023/02/04 04:47:10;;;;;;;5.35;0.70;;;5.80;97.80;;;;;;5080640;28;20043;-86
2023/02/04 04:49:37;;;;;;;5.43;1.40;;;5.70;97.80;;;;;;5059295;28;20533;-86
2023/02/04 04:52:04;;;;;;;1.75;0.30;;;5.70;97.80;;;;;;5059495;28;20093;-86
2023/02/04 04:54:31;;;;;;;4.32;0.57;;;5.70;97.90;;;;;;5060810;28;20073;-86
2023/02/04 04:57:01;;;;;;;2.45;0.45;;;5.70;97.90;;;;;;5042845;28;20097;-86
2023/02/04 04:59:28;;;;;;;4.65;0.45;;;5.70;98.00;;;;;;5043183;28;20488;-86
2023/02/04 05:01:55;;;;;;;3.70;0.73;;;5.70;98.00;;;;;;5034562;28;20146;-91
2023/02/04 05:04:22;;;;;;;6.82;0.77;;;5.70;98.00;;;;;;5079544;28;20600;-86
2023/02/04 05:06:49;;;;;;;4.25;0.40;;;5.80;98.00;;;;;;5040989;28;20048;-86
2023/02/04 05:09:16;;;;;;;3.97;0.47;;;5.80;97.90;;;;;;5062712;28;20043;-86
2023/02/04 05:11:43;;;;;;;4.55;0.77;;;5.80;97.80;;;;;;5096480;28;20498;-86
2023/02/04 05:14:10;;;;;;;4.32;0.90;;;5.90;97.80;;;;;;5079316;28;20047;-86
2023/02/04 05:16:37;;;;;;;2.78;0.35;;;5.90;97.80;;;;;;5062757;28;20091;-86
2023/02/04 05:19:04;;;;;;;1.70;0.63;;;6.00;97.80;;;;;;5026790;28;20044;-86
2023/02/04 05:21:32;;;;;;;2.63;0.30;;;6.00;97.80;;;;;;5060056;28;20049;-86
2023/02/04 05:23:59;;;;;;;2.03;0.40;;;6.00;97.80;;;;;;5043155;28;20044;-86
2023/02/04 05:26:26;;;;;;;1.55;0.40;;;6.00;97.70;;;;;;5043718;28;20052;-86
2023/02/04 05:28:59;;;;;;;3.55;0.45;;;6.00;97.70;;;;;;5072277;28;20055;-86
2023/02/04 05:31:26;;;;;;;3.83;0.50;;;6.10;97.80;;;;;;5043134;28;20162;-86
2023/02/04 05:33:54;;;;;;;3.38;0.60;;;6.10;97.80;;;;;;5059378;28;20056;-86
2023/02/04 05:36:21;;;;;;;1.58;0.20;;;6.20;97.80;;;;;;5026388;28;20037;-86
2023/02/04 05:38:48;;;;;;;2.28;0.60;;;6.20;98.00;;;;;;5042923;28;20139;-86
2023/02/04 05:41:15;;;;;;;1.00;0.17;;;6.20;97.70;;;;;;5059622;28;20037;-86
2023/02/04 05:43:42;;;;;;;2.17;0.35;;;6.20;97.70;;;;;;5054772;28;20044;-86
2023/02/04 05:46:09;;;;;;;2.30;0.40;;;6.20;97.70;;;;;;5063035;28;20410;-86
2023/02/04 05:48:38;;;;;;;3.80;0.38;;;6.30;97.80;;;;;;5062803;28;20040;-86
2023/02/04 05:51:05;;;;;;;2.17;0.35;;;6.30;97.80;;;;;;5062424;28;20040;-86
2023/02/04 05:53:32;;;;;;;3.13;0.32;;;6.30;97.80;;;;;;5046015;28;20044;-86
2023/02/04 05:55:59;;;;;;;4.97;0.50;;;6.30;97.70;;;;;;5062800;28;20040;-86
2023/02/04 05:58:32;;;;;;;2.58;0.47;;;6.30;97.70;;;;;;5059287;28;20068;-86
2023/02/04 06:01:02;;;;;;;;;;;6.30;97.70;;;;;;5078102;28;20534;-86
2023/02/04 06:03:30;;;;;;;3.38;0.30;;;6.30;97.80;;;;;;5078734;28;19985;-86
2023/02/04 06:05:57;;;;;;;2.63;0.30;;;6.30;97.80;;;;;;5062337;28;20492;-86
2023/02/04 06:08:24;;;;;;;4.18;0.80;;;6.30;97.70;;;;;;5073556;28;20487;-87
2023/02/04 06:10:52;;;;;;;4.50;0.40;;;6.30;97.70;;;;;;5065716;28;20048;-86
2023/02/04 06:13:19;;;;;;;2.47;0.40;;;6.30;97.70;;;;;;5082707;28;20492;-86
2023/02/04 06:15:46;;;;;;;3.03;0.40;;;6.40;97.80;;;;;;5078898;28;20040;-86
2023/02/04 06:18:13;;;;;;;3.15;0.95;;;6.40;98.00;;;;;;5067043;28;20578;-86
2023/02/04 06:20:40;;;;;;;2.28;0.20;;;6.40;97.80;;;;;;5065707;28;20123;-86
2023/02/04 06:23:07;;;;;;;4.38;0.70;;;6.40;98.10;;;;;;5099161;28;20122;-86
2023/02/04 06:25:34;;;;;;;3.08;0.32;;;6.40;97.80;;;;;;5031091;28;20072;-86
2023/02/04 06:28:02;;;;;;;4.93;0.40;;;6.40;97.80;;;;;;5058408;28;20076;-86
2023/02/04 06:30:29;;;;;;;6.85;0.80;;;6.50;97.80;;;;;;5075761;28;20049;-86
2023/02/04 06:32:57;;;;;;;3.20;0.30;;;6.50;97.70;;;;;;5082510;28;20425;-86
2023/02/04 06:35:24;;;;;;;2.22;0.30;;;6.50;97.70;;;;;;5053059;28;20123;-86
2023/02/04 06:37:51;;;;;;;3.58;0.95;;;6.50;97.70;;;;;;5016086;28;20036;-86
2023/02/04 06:40:19;;;;;;;5.63;0.30;;;6.50;97.80;;;;;;5069172;28;20032;-86
2023/02/04 06:42:46;;;;;;;4.00;0.65;;;6.50;97.80;;;;;;5041784;28;20048;-86
2023/02/04 06:45:13;;;;;;;1.65;0.40;;;6.60;97.80;;;;;;5052710;28;20113;-86
2023/02/04 06:47:40;;;;;;;2.13;0.40;;;6.60;97.80;;;;;;5032031;28;20048;-86
2023/02/04 06:50:07;;;;;;;3.92;0.77;;;6.60;97.80;;;;;;5044953;28;20044;-87
2023/02/04 06:52:34;;;;;;;3.03;0.35;;;6.60;97.80;;;;;;5070382;28;20143;-86
2023/02/04 06:55:02;;;;;;;1.85;0.40;;;6.60;97.80;;;;;;5058262;28;20040;-86
2023/02/04 06:57:29;;;;;;;3.22;0.50;;;6.60;97.80;;;;;;5041859;28;20044;-86
2023/02/04 06:59:56;;;;;;;3.20;0.52;;;6.60;97.80;;;;;;5008863;28;20044;-86
2023/02/04 07:02:23;;;;;;;2.70;0.40;;;6.60;98.00;;;;;;5025102;28;20538;-86
2023/02/04 07:04:50;;;;;;;3.13;0.60;;;6.60;97.70;;;;;;5025300;28;20135;-86
2023/02/04 07:07:17;;;;;;;4.18;1.00;;;6.60;97.70;;;;;;5024973;28;20044;-86
2023/02/04 07:09:44;;;;;;;7.30;1.33;;;6.60;97.70;;;;;;5033954;28;20478;-86
2023/02/04 07:12:11;;;;;;;6.05;0.95;;;6.60;97.70;;;;;;5061493;28;20078;-86
2023/02/04 07:14:40;;;;;;;6.20;0.80;;;6.60;97.70;;;;;;5044938;28;20032;-86
2023/02/04 07:17:07;;;;;;;5.28;0.90;;;6.60;97.70;;;;;;5044717;28;20570;-86
2023/02/04 07:19:35;;;;;;;4.18;0.70;;;6.60;98.00;;;;;;5044557;28;20133;-86
2023/02/04 07:22:03;;;;;;;4.32;0.63;;;6.60;97.70;;;;;;5061149;28;20036;-86
2023/02/04 07:24:30;;;;;;;4.55;0.80;;;6.60;97.70;;;;;;5078048;28;20507;-86
2023/02/04 07:26:57;;;;;;;6.85;1.15;;;6.60;97.70;;;;;;5060687;28;20055;-86
2023/02/04 07:29:24;;;;;;;6.03;0.90;;;6.60;97.70;;;;;;5060892;28;20058;-86
2023/02/04 07:31:52;;;;;;;4.28;0.60;;;6.60;97.70;;;;;;5060815;28;20458;-86
2023/02/04 07:34:20;;;;;;;3.92;0.85;;;6.60;97.70;;;;;;5060588;28;20052;-87
2023/02/04 07:36:47;;;;;;;5.40;1.25;;;6.60;97.70;;;;;;5060593;28;20048;-86
2023/02/04 07:39:15;;;;;;;4.82;0.82;;;6.70;97.70;;;;;;5060904;28;20036;-86
2023/02/04 07:41:42;;;;;;;3.30;0.82;;;6.70;97.70;;;;;;5060431;28;20040;-86
2023/02/04 07:44:11;;;;;;;7.82;1.33;;;6.70;97.80;;;;;;5044848;28;20044;-86
2023/02/04 07:46:38;;;;;;;5.35;1.35;;;6.70;97.70;;;;;;5060426;28;20040;-87
2023/02/04 07:49:05;;;;;;;5.35;1.50;;;6.70;97.80;;;;;;5076829;28;20131;-86
2023/02/04 07:51:32;;;;;;;3.75;0.90;;;6.70;97.80;;;;;;5060582;28;20036;-86
2023/02/04 07:54:00;;;;;;;5.85;1.13;;;6.70;97.80;;;;;;5060279;28;20127;-86
2023/02/04 07:56:27;;;;;;;6.53;0.95;;;6.80;97.80;;;;;;5077106;28;20338;-86
2023/02/04 07:59:00;;;;;;;6.43;1.25;;;6.80;97.70;;;;;;5060101;28;20109;-86
2023/02/04 08:01:27;;;;;;;3.65;0.80;;;6.80;97.70;;;;;;5060098;28;20048;-85
2023/02/04 08:03:55;;;;;;;4.80;1.25;;;6.90;97.70;;;;;;5059819;28;20102;-85
2023/02/04 08:06:22;;;;;;;7.18;1.83;;;6.90;97.70;;;;;;5052117;28;20496;-86
2023/02/04 08:08:49;;;;;;;4.95;0.90;;;6.90;97.70;;;;;;5060480;28;20055;-86
2023/02/04 08:11:16;;;;;;;4.30;1.33;;;6.90;97.70;;;;;;5076144;28;20047;-85
2023/02/04 08:13:43;;;;;;;4.20;0.82;;;7.00;97.70;;;;;;5076033;28;20043;-85
2023/02/04 08:16:10;;;;;;;4.93;0.95;;;7.00;97.70;;;;;;5059604;28;20052;-85
2023/02/04 08:18:38;;;;;;;4.32;0.70;;;7.00;97.70;;;;;;5060203;28;20071;-86
2023/02/04 08:21:05;;;;;;;7.97;1.25;;;7.10;97.70;;;;;;5059571;28;20131;-86
2023/02/04 08:23:32;;;;;;;5.78;0.82;;;7.10;97.60;;;;;;5043413;28;20067;-85
2023/02/04 08:25:59;;;;;;;6.35;1.15;;;7.10;97.60;;;;;;5092444;28;20130;-86
2023/02/04 08:28:26;;;;;;;6.00;1.35;;;7.20;97.80;;;;;;5059472;28;20086;-86
2023/02/04 08:30:54;;;;;;;5.65;0.70;;;7.20;97.50;;;;;;5062846;28;20067;-86
2023/02/04 08:33:22;;;;;;;2.70;0.50;;;7.30;97.50;;;;;;5061357;28;20047;-86
2023/02/04 08:35:49;;;;;;;4.30;0.63;;;7.40;97.50;;;;;;5027367;28;20119;-85
2023/02/04 08:38:16;;;;;;;2.17;0.40;;;7.50;97.50;;;;;;5043141;28;20044;-86
2023/02/04 08:40:43;;;;;;;2.03;0.40;;;7.50;97.50;;;;;;5059910;28;20078;-87
2023/02/04 08:43:10;;;;;;;3.47;0.50;;;7.60;97.50;;;;;;5043457;28;20044;-87
2023/02/04 08:45:38;;;;;;;3.15;0.50;;;7.60;97.40;;;;;;5042721;28;20048;-89
2023/02/04 08:48:06;;;;;;;3.45;0.85;;;7.70;97.30;;;;;;5060163;28;20125;-89
2023/02/04 08:50:33;;;;;;;3.08;0.60;;;7.70;97.30;;;;;;5076622;28;20098;-89
2023/02/04 08:53:02;;;;;;;2.65;0.50;;;7.70;97.30;;;;;;5072560;28;20044;-90
2023/02/04 08:55:29;;;;;;;7.32;0.90;;;7.80;97.50;;;;;;5060359;28;20055;-89
2023/02/04 08:57:57;;;;;;;4.95;0.70;;;7.80;97.30;;;;;;5059209;28;20048;-89
2023/02/04 09:00:25;;;;;;;3.10;0.43;;;7.90;97.20;;;;;;5025483;28;20060;-84
2023/02/04 09:02:52;;;;;;;4.65;0.80;;;7.90;97.20;;;;;;5055568;28;20090;-85
2023/02/04 09:05:19;;;;;;;5.82;1.00;;;7.90;97.10;;;;;;5038879;28;20408;-85
2023/02/04 09:07:46;;;;;;;9.40;2.00;;;7.90;97.10;;;;;;5042703;28;20089;-84
2023/02/04 09:10:13;;;;;;;6.72;0.90;;;7.90;97.10;;;;;;5038775;28;20052;-85
2023/02/04 09:12:41;;;;;;;7.35;1.02;;;8.00;97.10;;;;;;5042313;28;20168;-85
2023/02/04 09:15:10;;;;;;;3.58;0.75;;;8.00;97.40;;;;;;5058838;28;20040;-85
2023/02/04 09:17:37;;;;;;;5.72;1.25;;;8.10;97.10;;;;;;5059520;28;20044;-89
2023/02/04 09:20:05;;;;;;;5.57;0.90;;;8.10;97.10;;;;;;5060177;28;20050;-85
2023/02/04 09:22:32;;;;;;;3.65;0.85;;;8.20;97.10;;;;;;5075184;28;20040;-85
2023/02/04 09:24:59;;;;;;;4.80;1.13;;;8.30;97.00;;;;;;5055501;28;20488;-89
2023/02/04 09:27:27;;;;;;;6.88;1.30;;;8.30;96.90;;;;;;5040379;28;20045;-89
2023/02/04 09:29:54;;;;;;;11.20;1.95;;;8.40;96.90;;;;;;5075824;28;20105;-87
2023/02/04 09:32:21;;;;;;;5.50;1.15;;;8.40;96.80;;;;;;5055586;28;20109;-87
2023/02/04 09:34:48;;;;;;;5.85;0.90;;;8.50;96.90;;;;;;5055560;28;20074;-87
2023/02/04 09:37:15;;;;;;;7.70;1.42;;;8.40;96.80;;;;;;5036292;28;20040;-85
2023/02/04 09:39:42;;;;;;;5.30;1.25;;;8.40;96.80;;;;;;5058129;28;20040;-84
2023/02/04 09:42:15;;;;;;;5.53;1.00;;;8.40;96.90;;;;;;5050749;28;20427;-86
2023/02/04 09:44:44;;;;;;;7.72;1.00;;;8.30;96.90;;;;;;5038592;28;20044;-84
2023/02/04 09:47:14;;;;;;;3.33;0.88;;;8.20;97.00;;;;;;5032655;28;20036;-84
2023/02/04 09:49:45;;;;;;;5.00;1.02;;;8.10;97.10;;;;;;5057449;28;20111;-86
2023/02/04 09:52:15;;;;;;;3.43;0.40;;;8.10;97.20;;;;;;5071447;28;20076;-85
2023/02/04 09:54:43;;;;;;;6.47;0.68;;;8.10;97.30;;;;;;5068666;28;20040;-88
2023/02/04 09:57:15;;;;;;;6.13;0.60;;;8.10;97.30;;;;;;5032810;28;20055;-88
2023/02/04 09:59:43;;;;;;;13.85;1.10;;;8.20;97.30;;;;;;5058760;28;20563;-88
2023/02/04 10:02:24;;;;;;;7.78;1.35;;;8.30;97.10;;;;;;5077301;28;20071;-86
2023/02/04 10:04:56;;;;;;;6.53;0.90;;;8.40;97.00;;;;;;5096679;28;20048;-84
2023/02/04 10:07:25;;;;;;;3.57;0.60;;;8.40;97.00;;;;;;5083883;28;20052;-85
2023/02/04 10:09:55;;;;;;;4.38;0.57;;;8.50;96.90;;;;;;5062018;28;20123;-84
2023/02/04 10:12:23;;;;;;;3.38;0.60;;;8.60;96.90;;;;;;5046455;28;20044;-84
2023/02/04 10:14:51;;;;;;;4.90;1.02;;;8.60;96.80;;;;;;5041868;28;20078;-86
2023/02/04 10:17:21;;;;;;;6.45;1.20;;;8.70;96.70;;;;;;5062129;28;20075;-85
2023/02/04 10:19:49;;;;;;;3.03;0.47;;;8.80;96.60;;;;;;5058282;28;20504;-86
2023/02/04 10:22:19;;;;;;;4.78;0.80;;;8.80;96.60;;;;;;5042727;28;20499;-84
2023/02/04 10:24:46;;;;;;;2.55;0.50;;;8.80;96.60;;;;;;5062929;28;20038;-83
2023/02/04 10:27:16;;;;;;;4.32;0.88;;;8.90;96.60;;;;;;5077903;28;20044;-84
2023/02/04 10:29:57;;;;;;;6.30;0.43;;;9.00;96.60;;;;;;5061349;28;20040;-83
2023/02/04 10:32:30;;;;;;;2.30;0.50;;;9.00;96.50;;;;;;5057680;28;20139;-84
2023/02/04 10:35:00;;;;;;;1.65;0.28;;;9.10;96.50;;;;;;5092737;28;20546;-84
2023/02/04 10:37:29;;;;;;;4.32;0.77;;;9.10;96.50;;;;;;5097699;28;20048;-83
2023/02/04 10:39:56;;;;;;;4.07;0.50;;;9.10;96.40;;;;;;5081294;28;20052;-83
2023/02/04 10:42:26;;;;;;;4.45;0.50;;;9.10;96.40;;;;;;5050378;28;20036;-83
2023/02/04 10:44:54;;;;;;;2.47;0.80;;;9.10;96.40;;;;;;5077301;28;20050;-82
2023/02/04 10:47:24;;;;;;;1.13;0.30;;;9.10;96.50;;;;;;5060890;28;20067;-84
2023/02/04 10:50:11;;;;;;;3.90;0.80;;;9.10;96.50;;;;;;5077189;28;20047;-84
2023/02/04 10:52:42;;;;;;;6.28;0.73;;;9.20;96.40;;;;;;5079414;28;20039;-83
2023/02/04 10:55:18;;;;;;;2.83;0.55;;;9.30;96.30;;;;;;5097351;28;20114;-83
2023/02/04 10:57:53;;;;;;;2.08;0.50;;;9.40;96.20;;;;;;5097334;28;20138;-83
2023/02/04 11:00:22;;;;;;;4.85;0.82;;;9.40;96.20;;;;;;5080490;28;20047;-83
2023/02/04 11:02:58;;;;;;;2.95;0.60;;;9.50;96.20;;;;;;5060554;28;20068;-83
2023/02/04 11:05:32;;;;;;;7.38;1.58;;;9.60;96.10;;;;;;5087611;28;21633;-83
2023/02/04 11:08:00;;;;;;;7.18;1.13;;;9.70;95.90;;;;;;5060544;28;20044;-83
2023/02/04 11:10:32;;;;;;;5.68;1.17;;;9.80;95.80;;;;;;5076858;28;20073;-83
2023/02/04 11:13:03;;;;;;;6.05;0.80;;;9.80;95.70;;;;;;5077045;28;20082;-83
2023/02/04 11:15:40;;;;;;;5.80;1.65;;;9.90;95.70;;;;;;5068479;28;20040;-83
2023/02/04 11:18:10;;;;;;;5.60;1.05;;;10.00;95.60;;;;;;5096596;28;20067;-83
2023/02/04 11:20:39;;;;;;;4.68;0.50;;;9.90;95.60;;;;;;5096730;28;20040;-83
2023/02/04 11:23:25;;;;;;;4.93;0.85;;;10.00;95.60;;;;;;5080125;28;20043;-83
2023/02/04 11:26:10;;;;;;;2.55;0.68;;;10.00;95.50;;;;;;5080374;28;20074;-84
2023/02/04 11:28:58;;;;;;;2.10;0.50;;;10.00;95.50;;;;;;5079782;28;20085;-83
2023/02/04 11:31:27;;;;;;;5.95;0.75;;;10.00;95.50;;;;;;5079901;28;20297;-82
2023/02/04 11:34:13;;;;;;;4.10;0.57;;;9.90;95.50;;;;;;5079975;28;20079;-83
2023/02/04 11:36:56;;;;;;;4.32;0.70;;;9.90;95.40;;;;;;5076193;28;20426;-83
2023/02/04 11:39:33;;;;;;;4.75;1.17;;;9.90;95.40;;;;;;5076549;28;20511;-84
2023/02/04 11:42:00;;;;;;;3.25;0.50;;;10.00;95.40;;;;;;5059684;28;20044;-84
2023/02/04 11:44:27;;;;;;;4.80;0.70;;;10.00;95.40;;;;;;5059897;28;20093;-84
2023/02/04 11:46:57;;;;;;;4.57;0.52;;;10.00;95.40;;;;;;5056082;28;20063;-83
2023/02/04 11:49:27;;;;;;;4.30;0.57;;;9.90;95.20;;;;;;5070963;28;20130;-85
2023/02/04 11:52:07;;;;;;;5.03;0.75;;;9.90;95.20;;;;;;5080259;28;20070;-84
2023/02/04 11:54:35;;;;;;;4.25;0.88;;;10.00;95.10;;;;;;5060104;28;20048;-85
2023/02/04 11:57:03;;;;;;;4.18;0.38;;;10.00;95.10;;;;;;5059509;28;20476;-85
2023/02/04 11:59:30;;;;;;;4.95;0.88;;;10.00;95.00;;;;;;5048968;28;20048;-83
2023/02/04 12:02:19;;;;;;;4.22;0.50;;;10.00;95.30;;;;;;5053808;28;20038;-84
2023/02/04 12:05:10;;;;;;;3.17;1.05;;;10.00;94.90;;;;;;5059705;28;20451;-84
2023/02/04 12:07:38;;;;;;;4.07;1.10;;;10.00;94.90;;;;;;5060167;28;20048;-84
2023/02/04 12:10:11;;;;;;;2.97;0.55;;;10.00;95.00;;;;;;5076272;28;20143;-84
2023/02/04 12:12:48;;;;;;;1.20;0.30;;;10.00;94.80;;;;;;5058870;28;20467;-84
2023/02/04 12:15:19;;;;;;;1.52;0.22;;;10.10;94.80;;;;;;5075715;28;20070;-84
2023/02/04 12:18:06;;;;;;;4.28;0.60;;;10.20;94.80;;;;;;5069360;28;20043;-84
2023/02/04 12:20:36;;;;;;;5.25;0.70;;;10.30;94.50;;;;;;5095889;28;20046;-84
2023/02/04 12:23:04;;;;;;;2.55;0.30;;;10.30;94.50;;;;;;5096238;28;20487;-84
2023/02/04 12:25:31;;;;;;;6.65;0.60;;;10.40;94.40;;;;;;5079153;28;20134;-84
2023/02/04 12:27:58;;;;;;;6.50;0.60;;;10.50;94.30;;;;;;5071960;28;20040;-84
2023/02/04 12:30:26;;;;;;;2.95;0.30;;;10.50;94.20;;;;;;5059152;28;20044;-84
2023/02/04 12:32:54;;;;;;;3.15;0.40;;;10.60;94.10;;;;;;5075423;28;20500;-84
2023/02/04 12:35:21;;;;;;;3.05;0.75;;;10.60;94.10;;;;;;5059128;28;20093;-84
2023/02/04 12:37:48;;;;;;;6.00;0.88;;;10.60;94.10;;;;;;5063776;28;20119;-80
2023/02/04 12:40:20;;;;;;;3.92;0.70;;;10.50;94.10;;;;;;5038804;28;20040;-79
2023/02/04 12:42:47;;;;;;;6.25;0.60;;;10.50;94.10;;;;;;5038685;28;20044;-76
2023/02/04 12:45:15;;;;;;;2.55;0.32;;;10.40;94.10;;;;;;5038426;28;20036;-76
2023/02/04 12:47:44;;;;;;;4.15;0.30;;;10.40;94.10;;;;;;5055079;28;20048;-77
2023/02/04 12:50:14;;;;;;;4.82;0.60;;;10.30;94.10;;;;;;5062288;28;20118;-76
2023/02/04 12:52:43;;;;;;;2.00;0.32;;;10.30;94.00;;;;;;5085869;28;20101;-79
2023/02/04 12:55:10;;;;;;;5.93;0.88;;;10.20;94.00;;;;;;5065877;28;20040;-82
2023/02/04 12:57:37;;;;;;;4.32;0.50;;;10.10;94.10;;;;;;5088340;28;20058;-83
2023/02/04 13:00:06;;;;;;;3.65;0.63;;;10.00;94.10;;;;;;5062286;28;20139;-83
2023/02/04 13:02:33;;;;;;;1.95;0.50;;;9.90;94.20;;;;;;5062347;28;20094;-84